sensor_id;sensor_type;location;lat;lon;timestamp;temperature;humidity
2565;DHT22;1292;48.020;7.822;2023-07-22T05:45:38;16.70;99.90
2565;DHT22;1292;48.020;7.822;2023-07-22T05:48:05;16.80;99.90
2565;DHT22;1292;48.020;7.822;2023-07-22T05:50:32;16.90;99.90
2565;DHT22;1292;48.020;7.822;2023-07-22T05:52:59;17.00;99.90
2565;DHT22;1292;48.020;7.822;2023-07-22T05:55:26;17.10;99.90
2565;DHT22;1292;48.020;7.822;2023-07-22T05:57:53;17.10;99.90
2565;DHT22;1292;48.020;7.822;2023-07-22T06:00:20;17.30;99.90
2565;DHT22;1292;48.020;7.822;2023-07-22T06:02:48;17.40;99.90
2565;DHT22;1292;48.020;7.822;2023-07-22T06:05:15;17.50;99.90
2565;DHT22;1292;48.020;7.822;2023-07-22T06:07:42;17.60;99.90
2565;DHT22;1292;48.020;7.822;2023-07-22T06:10:10;17.80;99.90
2565;DHT22;1292;48.020;7.822;2023-07-22T06:12:37;17.90;99.90
2565;DHT22;1292;48.020;7.822;2023-07-22T06:15:04;18.00;99.90
2565;DHT22;1292;48.020;7.822;2023-07-22T06:17:31;18.20;99.90
2565;DHT22;1292;48.020;7.822;2023-07-22T06:20:00;18.30;99.90
2565;DHT22;1292;48.020;7.822;2023-07-22T06:22:26;18.50;99.90
2565;DHT22;1292;48.020;7.822;2023-07-22T06:24:53;18.50;99.90
2565;DHT22;1292;48.020;7.822;2023-07-22T06:27:20;18.60;99.90
2565;DHT22;1292;48.020;7.822;2023-07-22T06:29:47;18.70;99.90
2565;DHT22;1292;48.020;7.822;2023-07-22T06:32:14;18.70;99.90
2565;DHT22;1292;48.020;7.822;2023-07-22T06:34:41;18.70;99.90
2565;DHT22;1292;48.020;7.822;2023-07-22T06:37:09;18.80;99.90
2565;DHT22;1292;48.020;7.822;2023-07-22T06:39:36;18.80;99.90
2565;DHT22;1292;48.020;7.822;2023-07-22T06:42:03;18.80;99.90
2565;DHT22;1292;48.020;7.822;2023-07-22T06:44:30;18.90;99.90
2565;DHT22;1292;48.020;7.822;2023-07-22T06:46:57;19.00;99.90
2565;DHT22;1292;48.020;7.822;2023-07-22T06:49:23;19.00;99.90
2565;DHT22;1292;48.020;7.822;2023-07-22T06:51:50;19.10;99.90
2565;DHT22;1292;48.020;7.822;2023-07-22T06:54:18;19.30;99.90
2565;DHT22;1292;48.020;7.822;2023-07-22T06:56:45;19.40;99.90
2565;DHT22;1292;48.020;7.822;2023-07-22T06:59:12;19.40;99.90
2565;DHT22;1292;48.020;7.822;2023-07-22T07:01:39;19.50;99.90
2565;DHT22;1292;48.020;7.822;2023-07-22T07:04:06;19.60;99.90
2565;DHT22;1292;48.020;7.822;2023-07-22T07:06:33;19.70;99.90
2565;DHT22;1292;48.020;7.822;2023-07-22T07:09:00;19.80;99.90
2565;DHT22;1292;48.020;7.822;2023-07-22T07:11:30;19.90;99.90
2565;DHT22;1292;48.020;7.822;2023-07-22T07:13:57;19.90;99.90
2565;DHT22;1292;48.020;7.822;2023-07-22T07:16:25;19.90;99.90
2565;DHT22;1292;48.020;7.822;2023-07-22T07:18:53;20.00;99.90
2565;DHT22;1292;48.020;7.822;2023-07-22T07:21:20;20.00;99.90
2565;DHT22;1292;48.020;7.822;2023-07-22T07:23:47;20.10;99.90
2565;DHT22;1292;48.020;7.822;2023-07-22T07:26:14;20.20;99.90
2565;DHT22;1292;48.020;7.822;2023-07-22T07:28:43;20.30;99.90
2565;DHT22;1292;48.020;7.822;2023-07-22T07:31:10;20.40;99.90
2565;DHT22;1292;48.020;7.822;2023-07-22T07:33:37;20.40;99.90
2565;DHT22;1292;48.020;7.822;2023-07-22T07:36:04;20.50;99.90
2565;DHT22;1292;48.020;7.822;2023-07-22T07:38:31;20.50;99.90
2565;DHT22;1292;48.020;7.822;2023-07-22T07:41:03;20.60;99.90
2565;DHT22;1292;48.020;7.822;2023-07-22T07:43:30;20.70;99.90
2565;DHT22;1292;48.020;7.822;2023-07-22T07:46:23;20.70;99.90
2565;DHT22;1292;48.020;7.822;2023-07-22T07:48:53;20.90;99.90
2565;DHT22;1292;48.020;7.822;2023-07-22T07:51:21;20.90;99.90
2565;DHT22;1292;48.020;7.822;2023-07-22T07:53:48;20.90;99.90
2565;DHT22;1292;48.020;7.822;2023-07-22T07:56:16;20.80;99.90
2565;DHT22;1292;48.020;7.822;2023-07-22T07:58:44;20.90;99.90
2565;DHT22;1292;48.020;7.822;2023-07-22T08:01:11;21.00;99.90
2565;DHT22;1292;48.020;7.822;2023-07-22T08:03:41;21.10;99.90
2565;DHT22;1292;48.020;7.822;2023-07-22T08:06:08;21.20;99.90
2565;DHT22;1292;48.020;7.822;2023-07-22T08:08:36;21.30;99.90
2565;DHT22;1292;48.020;7.822;2023-07-22T08:11:09;21.40;99.90
2565;DHT22;1292;48.020;7.822;2023-07-22T08:13:36;21.40;99.90
2565;DHT22;1292;48.020;7.822;2023-07-22T08:16:05;21.60;99.90
2565;DHT22;1292;48.020;7.822;2023-07-22T08:18:33;21.60;99.90
2565;DHT22;1292;48.020;7.822;2023-07-22T08:21:02;21.70;99.90
2565;DHT22;1292;48.020;7.822;2023-07-22T08:23:29;21.80;99.90
2565;DHT22;1292;48.020;7.822;2023-07-22T08:25:56;21.90;99.90
2565;DHT22;1292;48.020;7.822;2023-07-22T08:28:23;21.90;99.90
2565;DHT22;1292;48.020;7.822;2023-07-22T08:30:50;22.00;99.90
2565;DHT22;1292;48.020;7.822;2023-07-22T08:33:17;22.10;99.90
2565;DHT22;1292;48.020;7.822;2023-07-22T08:35:44;22.20;99.90
2565;DHT22;1292;48.020;7.822;2023-07-22T08:38:14;22.20;99.90
2565;DHT22;1292;48.020;7.822;2023-07-22T08:40:41;22.30;99.90
2565;DHT22;1292;48.020;7.822;2023-07-22T08:43:09;22.40;99.90
2565;DHT22;1292;48.020;7.822;2023-07-22T08:45:37;22.50;99.90
2565;DHT22;1292;48.020;7.822;2023-07-22T08:48:06;22.60;99.90
2565;DHT22;1292;48.020;7.822;2023-07-22T08:50:39;22.70;99.90
2565;DHT22;1292;48.020;7.822;2023-07-22T08:53:08;22.70;99.90
2565;DHT22;1292;48.020;7.822;2023-07-22T08:55:36;22.80;99.90
2565;DHT22;1292;48.020;7.822;2023-07-22T08:58:07;22.80;99.90
2565;DHT22;1292;48.020;7.822;2023-07-22T09:00:34;22.80;99.90
2565;DHT22;1292;48.020;7.822;2023-07-22T09:03:02;22.90;99.90
2565;DHT22;1292;48.020;7.822;2023-07-22T09:05:31;23.10;99.90
2565;DHT22;1292;48.020;7.822;2023-07-22T09:07:59;23.60;99.90
2565;DHT22;1292;48.020;7.822;2023-07-22T09:10:28;24.00;99.90
2565;DHT22;1292;48.020;7.822;2023-07-22T09:12:56;24.10;99.90
2565;DHT22;1292;48.020;7.822;2023-07-22T09:15:24;24.20;99.90
2565;DHT22;1292;48.020;7.822;2023-07-22T09:17:51;24.20;99.90
2565;DHT22;1292;48.020;7.822;2023-07-22T09:20:19;24.30;99.90
2565;DHT22;1292;48.020;7.822;2023-07-22T09:22:48;24.10;99.90
2565;DHT22;1292;48.020;7.822;2023-07-22T09:25:17;23.90;99.90
2565;DHT22;1292;48.020;7.822;2023-07-22T09:27:45;24.10;99.90
2565;DHT22;1292;48.020;7.822;2023-07-22T09:30:24;24.30;99.90
2565;DHT22;1292;48.020;7.822;2023-07-22T09:32:53;24.40;99.90
2565;DHT22;1292;48.020;7.822;2023-07-22T09:35:22;24.50;99.90
2565;DHT22;1292;48.020;7.822;2023-07-22T09:37:49;24.60;99.90
2565;DHT22;1292;48.020;7.822;2023-07-22T09:40:20;24.80;99.90
2565;DHT22;1292;48.020;7.822;2023-07-22T09:42:49;24.80;99.90
2565;DHT22;1292;48.020;7.822;2023-07-22T09:45:16;24.60;99.90
2565;DHT22;1292;48.020;7.822;2023-07-22T09:47:46;24.30;99.90
2565;DHT22;1292;48.020;7.822;2023-07-22T09:50:15;24.40;99.90
2565;DHT22;1292;48.020;7.822;2023-07-22T09:52:45;24.50;99.90
2565;DHT22;1292;48.020;7.822;2023-07-22T09:55:13;24.50;99.90
2565;DHT22;1292;48.020;7.822;2023-07-22T09:57:43;24.60;99.90
2565;DHT22;1292;48.020;7.822;2023-07-22T10:00:12;24.70;99.90
2565;DHT22;1292;48.020;7.822;2023-07-22T10:02:41;24.80;99.90
2565;DHT22;1292;48.020;7.822;2023-07-22T10:05:12;25.10;99.90
2565;DHT22;1292;48.020;7.822;2023-07-22T10:07:43;25.20;99.90
2565;DHT22;1292;48.020;7.822;2023-07-22T10:10:11;25.10;99.90
2565;DHT22;1292;48.020;7.822;2023-07-22T10:12:40;25.00;99.90
2565;DHT22;1292;48.020;7.822;2023-07-22T10:15:09;25.10;99.90
2565;DHT22;1292;48.020;7.822;2023-07-22T10:17:36;25.00;99.90
2565;DHT22;1292;48.020;7.822;2023-07-22T10:20:04;25.00;99.90
2565;DHT22;1292;48.020;7.822;2023-07-22T10:22:36;24.80;99.90
2565;DHT22;1292;48.020;7.822;2023-07-22T10:25:04;24.80;99.90
2565;DHT22;1292;48.020;7.822;2023-07-22T10:27:32;24.80;99.90
2565;DHT22;1292;48.020;7.822;2023-07-22T10:30:01;24.70;99.90
2565;DHT22;1292;48.020;7.822;2023-07-22T10:32:33;24.80;99.90
2565;DHT22;1292;48.020;7.822;2023-07-22T10:35:00;25.00;99.90
2565;DHT22;1292;48.020;7.822;2023-07-22T10:37:30;24.90;99.90
2565;DHT22;1292;48.020;7.822;2023-07-22T10:40:01;25.00;99.90
2565;DHT22;1292;48.020;7.822;2023-07-22T10:42:31;25.20;99.90
2565;DHT22;1292;48.020;7.822;2023-07-22T10:45:00;25.30;99.90
2565;DHT22;1292;48.020;7.822;2023-07-22T10:47:32;25.20;99.90
2565;DHT22;1292;48.020;7.822;2023-07-22T10:50:05;25.10;99.90
2565;DHT22;1292;48.020;7.822;2023-07-22T10:52:43;25.00;99.90
2565;DHT22;1292;48.020;7.822;2023-07-22T10:55:17;24.60;99.90
2565;DHT22;1292;48.020;7.822;2023-07-22T10:57:49;24.50;99.90
2565;DHT22;1292;48.020;7.822;2023-07-22T11:00:20;24.50;99.90
2565;DHT22;1292;48.020;7.822;2023-07-22T11:02:47;24.60;99.90
2565;DHT22;1292;48.020;7.822;2023-07-22T11:05:47;24.70;99.90
2565;DHT22;1292;48.020;7.822;2023-07-22T11:08:15;25.00;99.90
2565;DHT22;1292;48.020;7.822;2023-07-22T11:10:53;25.10;99.90
2565;DHT22;1292;48.020;7.822;2023-07-22T11:13:27;25.40;99.90
2565;DHT22;1292;48.020;7.822;2023-07-22T11:15:57;25.40;99.90
2565;DHT22;1292;48.020;7.822;2023-07-22T11:18:36;25.60;99.90
2565;DHT22;1292;48.020;7.822;2023-07-22T11:21:07;25.70;99.90
2565;DHT22;1292;48.020;7.822;2023-07-22T11:23:34;25.60;99.90
2565;DHT22;1292;48.020;7.822;2023-07-22T11:26:03;25.40;99.90
2565;DHT22;1292;48.020;7.822;2023-07-22T11:28:31;25.30;99.90
2565;DHT22;1292;48.020;7.822;2023-07-22T11:30:58;25.30;99.90
2565;DHT22;1292;48.020;7.822;2023-07-22T11:33:26;25.30;99.90
2565;DHT22;1292;48.020;7.822;2023-07-22T11:36:03;25.20;99.90
2565;DHT22;1292;48.020;7.822;2023-07-22T11:38:30;25.50;99.90
2565;DHT22;1292;48.020;7.822;2023-07-22T11:40:57;25.90;99.90
2565;DHT22;1292;48.020;7.822;2023-07-22T11:43:26;26.10;99.90
2565;DHT22;1292;48.020;7.822;2023-07-22T11:45:53;26.10;99.90
2565;DHT22;1292;48.020;7.822;2023-07-22T11:48:20;26.20;99.90
2565;DHT22;1292;48.020;7.822;2023-07-22T11:50:47;26.30;99.90
2565;DHT22;1292;48.020;7.822;2023-07-22T11:53:14;26.40;99.90
2565;DHT22;1292;48.020;7.822;2023-07-22T11:55:41;26.60;99.90
2565;DHT22;1292;48.020;7.822;2023-07-22T11:58:07;26.60;99.90
2565;DHT22;1292;48.020;7.822;2023-07-22T12:00:36;26.60;99.90
2565;DHT22;1292;48.020;7.822;2023-07-22T12:03:05;26.60;99.90
2565;DHT22;1292;48.020;7.822;2023-07-22T12:05:35;26.60;99.90
2565;DHT22;1292;48.020;7.822;2023-07-22T12:08:03;26.90;99.90
2565;DHT22;1292;48.020;7.822;2023-07-22T12:10:32;27.00;99.90
2565;DHT22;1292;48.020;7.822;2023-07-22T12:13:01;26.90;99.90
2565;DHT22;1292;48.020;7.822;2023-07-22T12:15:28;26.80;99.90
2565;DHT22;1292;48.020;7.822;2023-07-22T12:17:58;26.70;99.90
2565;DHT22;1292;48.020;7.822;2023-07-22T12:20:27;26.50;99.90
2565;DHT22;1292;48.020;7.822;2023-07-22T12:22:54;26.40;99.90
2565;DHT22;1292;48.020;7.822;2023-07-22T12:25:21;26.30;99.90
2565;DHT22;1292;48.020;7.822;2023-07-22T12:27:48;26.30;99.90
2565;DHT22;1292;48.020;7.822;2023-07-22T12:30:15;26.10;99.90
2565;DHT22;1292;48.020;7.822;2023-07-22T12:32:42;26.10;99.90
2565;DHT22;1292;48.020;7.822;2023-07-22T12:35:10;26.10;99.90
2565;DHT22;1292;48.020;7.822;2023-07-22T12:37:39;26.10;99.90
2565;DHT22;1292;48.020;7.822;2023-07-22T12:40:07;26.00;99.90
2565;DHT22;1292;48.020;7.822;2023-07-22T12:42:33;26.10;99.90
2565;DHT22;1292;48.020;7.822;2023-07-22T12:45:00;26.30;99.90
2565;DHT22;1292;48.020;7.822;2023-07-22T12:47:27;26.50;99.90
2565;DHT22;1292;48.020;7.822;2023-07-22T12:49:54;26.60;99.90
2565;DHT22;1292;48.020;7.822;2023-07-22T12:52:22;26.80;99.90
2565;DHT22;1292;48.020;7.822;2023-07-22T12:54:49;26.80;99.90
2565;DHT22;1292;48.020;7.822;2023-07-22T12:57:16;26.70;99.90
2565;DHT22;1292;48.020;7.822;2023-07-22T12:59:42;26.90;99.90
2565;DHT22;1292;48.020;7.822;2023-07-22T13:02:09;26.90;99.30
2565;DHT22;1292;48.020;7.822;2023-07-22T13:04:36;26.90;99.90
2565;DHT22;1292;48.020;7.822;2023-07-22T13:07:03;27.10;99.90
2565;DHT22;1292;48.020;7.822;2023-07-22T13:09:31;27.30;99.50
2565;DHT22;1292;48.020;7.822;2023-07-22T13:11:58;27.10;99.90
2565;DHT22;1292;48.020;7.822;2023-07-22T13:14:25;27.30;99.90
2565;DHT22;1292;48.020;7.822;2023-07-22T13:16:51;27.30;99.90
2565;DHT22;1292;48.020;7.822;2023-07-22T13:19:18;27.40;99.00
2565;DHT22;1292;48.020;7.822;2023-07-22T13:21:45;27.30;99.40
2565;DHT22;1292;48.020;7.822;2023-07-22T13:24:12;27.30;98.30
2565;DHT22;1292;48.020;7.822;2023-07-22T13:26:41;27.50;99.80
2565;DHT22;1292;48.020;7.822;2023-07-22T13:29:08;27.60;99.20
2565;DHT22;1292;48.020;7.822;2023-07-22T13:31:35;27.40;99.60
2565;DHT22;1292;48.020;7.822;2023-07-22T13:34:02;27.50;99.90
2565;DHT22;1292;48.020;7.822;2023-07-22T13:36:29;27.60;99.70
2565;DHT22;1292;48.020;7.822;2023-07-22T13:38:56;27.80;99.90
2565;DHT22;1292;48.020;7.822;2023-07-22T13:41:22;27.90;99.20
2565;DHT22;1292;48.020;7.822;2023-07-22T13:43:51;27.70;99.00
2565;DHT22;1292;48.020;7.822;2023-07-22T13:46:17;27.80;98.40
2565;DHT22;1292;48.020;7.822;2023-07-22T13:48:44;27.70;98.00
2565;DHT22;1292;48.020;7.822;2023-07-22T13:51:11;27.30;98.80
2565;DHT22;1292;48.020;7.822;2023-07-22T13:53:38;27.40;99.20
2565;DHT22;1292;48.020;7.822;2023-07-22T13:56:05;27.50;98.90
2565;DHT22;1292;48.020;7.822;2023-07-22T13:58:32;27.50;99.10
2565;DHT22;1292;48.020;7.822;2023-07-22T14:01:01;27.60;98.20
2565;DHT22;1292;48.020;7.822;2023-07-22T14:03:28;27.80;99.70
2565;DHT22;1292;48.020;7.822;2023-07-22T14:05:55;27.70;98.70
2565;DHT22;1292;48.020;7.822;2023-07-22T14:08:22;27.80;99.10
2565;DHT22;1292;48.020;7.822;2023-07-22T14:10:49;27.80;97.60
2565;DHT22;1292;48.020;7.822;2023-07-22T14:13:16;27.80;98.10
2565;DHT22;1292;48.020;7.822;2023-07-22T14:15:42;27.90;97.20
2565;DHT22;1292;48.020;7.822;2023-07-22T14:18:11;27.90;96.30
2565;DHT22;1292;48.020;7.822;2023-07-22T14:20:42;27.90;97.60
2565;DHT22;1292;48.020;7.822;2023-07-22T14:23:09;28.00;97.30
2565;DHT22;1292;48.020;7.822;2023-07-22T14:25:36;28.00;97.30
2565;DHT22;1292;48.020;7.822;2023-07-22T14:28:03;28.10;96.90
2565;DHT22;1292;48.020;7.822;2023-07-22T14:30:29;27.90;96.10
2565;DHT22;1292;48.020;7.822;2023-07-22T14:32:56;28.00;95.50
2565;DHT22;1292;48.020;7.822;2023-07-22T14:35:24;27.80;95.90
2565;DHT22;1292;48.020;7.822;2023-07-22T14:37:51;27.90;96.20
2565;DHT22;1292;48.020;7.822;2023-07-22T14:40:18;27.90;95.60
2565;DHT22;1292;48.020;7.822;2023-07-22T14:42:45;27.90;95.50
2565;DHT22;1292;48.020;7.822;2023-07-22T14:45:12;27.70;94.60
2565;DHT22;1292;48.020;7.822;2023-07-22T14:47:38;27.80;95.20
2565;DHT22;1292;48.020;7.822;2023-07-22T14:50:06;27.80;94.50
2565;DHT22;1292;48.020;7.822;2023-07-22T14:52:34;27.90;94.30
2565;DHT22;1292;48.020;7.822;2023-07-22T14:55:01;27.80;93.50
2565;DHT22;1292;48.020;7.822;2023-07-22T14:57:28;27.60;93.90
2565;DHT22;1292;48.020;7.822;2023-07-22T14:59:54;27.60;94.10
2565;DHT22;1292;48.020;7.822;2023-07-22T15:02:22;27.50;93.50
2565;DHT22;1292;48.020;7.822;2023-07-22T15:04:49;27.60;94.80
2565;DHT22;1292;48.020;7.822;2023-07-22T15:07:16;27.70;94.30
2565;DHT22;1292;48.020;7.822;2023-07-22T15:09:44;27.70;93.70
2565;DHT22;1292;48.020;7.822;2023-07-22T15:12:10;27.60;94.10
2565;DHT22;1292;48.020;7.822;2023-07-22T15:14:37;27.50;94.10
2565;DHT22;1292;48.020;7.822;2023-07-22T15:17:04;27.50;94.30
2565;DHT22;1292;48.020;7.822;2023-07-22T15:19:31;27.60;95.20
2565;DHT22;1292;48.020;7.822;2023-07-22T15:21:58;27.60;94.60
2565;DHT22;1292;48.020;7.822;2023-07-22T15:24:25;27.70;94.40
2565;DHT22;1292;48.020;7.822;2023-07-22T15:26:53;27.70;94.40
2565;DHT22;1292;48.020;7.822;2023-07-22T15:29:20;27.70;94.70
2565;DHT22;1292;48.020;7.822;2023-07-22T15:31:47;27.70;94.90
2565;DHT22;1292;48.020;7.822;2023-07-22T15:34:14;27.70;95.70
2565;DHT22;1292;48.020;7.822;2023-07-22T15:36:40;27.70;94.20
2565;DHT22;1292;48.020;7.822;2023-07-22T15:39:07;27.90;94.70
2565;DHT22;1292;48.020;7.822;2023-07-22T15:41:34;28.00;94.80
2565;DHT22;1292;48.020;7.822;2023-07-22T15:44:03;28.10;94.60
2565;DHT22;1292;48.020;7.822;2023-07-22T15:46:30;28.00;95.40
2565;DHT22;1292;48.020;7.822;2023-07-22T15:48:57;28.00;94.80
2565;DHT22;1292;48.020;7.822;2023-07-22T15:51:23;28.10;95.00
2565;DHT22;1292;48.020;7.822;2023-07-22T15:53:50;28.10;94.40
2565;DHT22;1292;48.020;7.822;2023-07-22T15:56:17;28.00;94.70
2565;DHT22;1292;48.020;7.822;2023-07-22T15:58:44;28.00;94.60
2565;DHT22;1292;48.020;7.822;2023-07-22T16:01:12;27.90;94.90
2565;DHT22;1292;48.020;7.822;2023-07-22T16:03:39;27.80;94.60
2565;DHT22;1292;48.020;7.822;2023-07-22T16:06:06;27.90;94.30
2565;DHT22;1292;48.020;7.822;2023-07-22T16:08:33;27.70;94.80
2565;DHT22;1292;48.020;7.822;2023-07-22T16:11:00;27.80;94.80
2565;DHT22;1292;48.020;7.822;2023-07-22T16:13:27;27.90;93.90
2565;DHT22;1292;48.020;7.822;2023-07-22T16:15:54;27.90;93.90
2565;DHT22;1292;48.020;7.822;2023-07-22T16:18:22;27.70;93.50
2565;DHT22;1292;48.020;7.822;2023-07-22T16:20:49;27.60;93.90
2565;DHT22;1292;48.020;7.822;2023-07-22T16:23:16;27.50;94.30
2565;DHT22;1292;48.020;7.822;2023-07-22T16:25:43;27.40;94.10
2565;DHT22;1292;48.020;7.822;2023-07-22T16:28:10;27.50;93.90
2565;DHT22;1292;48.020;7.822;2023-07-22T16:30:37;27.40;95.40
2565;DHT22;1292;48.020;7.822;2023-07-22T16:33:03;27.30;94.40
2565;DHT22;1292;48.020;7.822;2023-07-22T16:35:32;27.10;94.30
2565;DHT22;1292;48.020;7.822;2023-07-22T16:37:59;27.10;95.10
2565;DHT22;1292;48.020;7.822;2023-07-22T16:40:26;27.10;94.80
2565;DHT22;1292;48.020;7.822;2023-07-22T16:42:52;27.20;95.60
2565;DHT22;1292;48.020;7.822;2023-07-22T16:45:20;27.20;94.80
2565;DHT22;1292;48.020;7.822;2023-07-22T16:47:48;27.10;95.20
2565;DHT22;1292;48.020;7.822;2023-07-22T16:50:15;27.00;94.90
2565;DHT22;1292;48.020;7.822;2023-07-22T16:52:43;27.00;95.10
2565;DHT22;1292;48.020;7.822;2023-07-22T16:55:10;27.10;95.90
2565;DHT22;1292;48.020;7.822;2023-07-22T16:57:37;27.10;95.80
2565;DHT22;1292;48.020;7.822;2023-07-22T17:00:06;27.10;95.10
2565;DHT22;1292;48.020;7.822;2023-07-22T17:02:37;27.10;94.80
2565;DHT22;1292;48.020;7.822;2023-07-22T17:05:04;27.00;95.00
2565;DHT22;1292;48.020;7.822;2023-07-22T17:07:31;26.90;95.50
2565;DHT22;1292;48.020;7.822;2023-07-22T17:09:59;26.90;96.10
2565;DHT22;1292;48.020;7.822;2023-07-22T17:12:26;27.00;96.50
2565;DHT22;1292;48.020;7.822;2023-07-22T17:14:53;27.00;96.10
2565;DHT22;1292;48.020;7.822;2023-07-22T17:17:19;27.00;95.50
2565;DHT22;1292;48.020;7.822;2023-07-22T17:19:46;27.00;96.20
2565;DHT22;1292;48.020;7.822;2023-07-22T17:22:13;26.90;95.60
2565;DHT22;1292;48.020;7.822;2023-07-22T17:24:40;26.90;96.00
2565;DHT22;1292;48.020;7.822;2023-07-22T17:27:08;26.70;95.50
2565;DHT22;1292;48.020;7.822;2023-07-22T17:29:35;26.70;95.70
2565;DHT22;1292;48.020;7.822;2023-07-22T17:32:02;26.60;96.60
2565;DHT22;1292;48.020;7.822;2023-07-22T17:34:29;26.40;96.00
2565;DHT22;1292;48.020;7.822;2023-07-22T17:36:56;26.50;96.50
2565;DHT22;1292;48.020;7.822;2023-07-22T17:42:46;26.30;96.40
2565;DHT22;1292;48.020;7.822;2023-07-22T17:45:13;26.30;96.60
2565;DHT22;1292;48.020;7.822;2023-07-22T17:47:39;26.40;97.30
2565;DHT22;1292;48.020;7.822;2023-07-22T17:50:08;26.50;96.80
2565;DHT22;1292;48.020;7.822;2023-07-22T17:52:35;26.60;97.60
2565;DHT22;1292;48.020;7.822;2023-07-22T17:55:01;26.60;97.80
2565;DHT22;1292;48.020;7.822;2023-07-22T17:57:29;26.60;96.40
2565;DHT22;1292;48.020;7.822;2023-07-22T17:59:58;26.50;96.50
2565;DHT22;1292;48.020;7.822;2023-07-22T18:02:24;26.50;97.60
2565;DHT22;1292;48.020;7.822;2023-07-22T18:04:51;26.50;97.30
2565;DHT22;1292;48.020;7.822;2023-07-22T18:07:18;26.40;97.20
2565;DHT22;1292;48.020;7.822;2023-07-22T18:09:45;26.50;97.40
2565;DHT22;1292;48.020;7.822;2023-07-22T18:12:12;26.40;97.10
2565;DHT22;1292;48.020;7.822;2023-07-22T18:14:39;26.50;97.80
2565;DHT22;1292;48.020;7.822;2023-07-22T18:17:07;26.40;98.20
2565;DHT22;1292;48.020;7.822;2023-07-22T18:19:34;26.30;97.00
2565;DHT22;1292;48.020;7.822;2023-07-22T18:22:01;26.30;98.00
2565;DHT22;1292;48.020;7.822;2023-07-22T18:24:28;26.20;98.40
2565;DHT22;1292;48.020;7.822;2023-07-22T18:26:56;26.20;98.10
2565;DHT22;1292;48.020;7.822;2023-07-22T18:29:23;26.20;97.40
2565;DHT22;1292;48.020;7.822;2023-07-22T18:31:50;26.10;97.70
2565;DHT22;1292;48.020;7.822;2023-07-22T18:34:18;26.00;97.90
2565;DHT22;1292;48.020;7.822;2023-07-22T18:36:47;25.90;98.00
2565;DHT22;1292;48.020;7.822;2023-07-22T18:39:14;25.90;98.50
2565;DHT22;1292;48.020;7.822;2023-07-22T18:41:41;25.90;99.10
2565;DHT22;1292;48.020;7.822;2023-07-22T18:44:08;25.90;98.70
2565;DHT22;1292;48.020;7.822;2023-07-22T18:46:36;25.80;98.80
2565;DHT22;1292;48.020;7.822;2023-07-22T18:49:04;25.70;99.40
2565;DHT22;1292;48.020;7.822;2023-07-22T18:51:32;25.60;99.50
2565;DHT22;1292;48.020;7.822;2023-07-22T18:53:59;25.60;99.50
2565;DHT22;1292;48.020;7.822;2023-07-22T18:56:26;25.60;99.60
2565;DHT22;1292;48.020;7.822;2023-07-22T18:58:54;25.50;99.90
2565;DHT22;1292;48.020;7.822;2023-07-22T19:01:21;25.40;99.90
2565;DHT22;1292;48.020;7.822;2023-07-22T19:03:48;25.40;99.90
2565;DHT22;1292;48.020;7.822;2023-07-22T19:06:14;25.40;99.90
2565;DHT22;1292;48.020;7.822;2023-07-22T19:08:43;25.30;99.90
2565;DHT22;1292;48.020;7.822;2023-07-22T19:11:10;25.20;99.90
2565;DHT22;1292;48.020;7.822;2023-07-22T19:13:37;25.10;99.90
2565;DHT22;1292;48.020;7.822;2023-07-22T19:16:04;25.00;99.90
2565;DHT22;1292;48.020;7.822;2023-07-22T19:18:31;24.90;99.90
2565;DHT22;1292;48.020;7.822;2023-07-22T19:20:59;24.80;99.90
2565;DHT22;1292;48.020;7.822;2023-07-22T19:23:27;24.80;99.90
2565;DHT22;1292;48.020;7.822;2023-07-22T19:25:56;24.70;99.90
2565;DHT22;1292;48.020;7.822;2023-07-22T19:28:23;24.60;99.90
2565;DHT22;1292;48.020;7.822;2023-07-22T19:30:53;24.60;99.90
2565;DHT22;1292;48.020;7.822;2023-07-22T19:33:21;24.60;99.90
2565;DHT22;1292;48.020;7.822;2023-07-22T19:35:59;24.60;99.90
2565;DHT22;1292;48.020;7.822;2023-07-22T19:38:26;24.50;99.90
2565;DHT22;1292;48.020;7.822;2023-07-22T19:41:01;24.40;99.90
2565;DHT22;1292;48.020;7.822;2023-07-22T19:43:28;24.40;99.90
2565;DHT22;1292;48.020;7.822;2023-07-22T19:45:59;24.40;99.90
2565;DHT22;1292;48.020;7.822;2023-07-22T19:48:26;24.30;99.90
2565;DHT22;1292;48.020;7.822;2023-07-22T19:50:54;24.30;99.90
2565;DHT22;1292;48.020;7.822;2023-07-22T19:53:21;24.10;99.90
2565;DHT22;1292;48.020;7.822;2023-07-22T19:55:48;24.10;99.90
2565;DHT22;1292;48.020;7.822;2023-07-22T19:58:16;24.10;99.90
2565;DHT22;1292;48.020;7.822;2023-07-22T20:00:44;24.00;99.90
2565;DHT22;1292;48.020;7.822;2023-07-22T20:03:11;24.00;99.90
2565;DHT22;1292;48.020;7.822;2023-07-22T20:05:39;23.90;99.90
2565;DHT22;1292;48.020;7.822;2023-07-22T20:08:06;23.80;99.90
2565;DHT22;1292;48.020;7.822;2023-07-22T20:10:33;23.80;99.90
2565;DHT22;1292;48.020;7.822;2023-07-22T20:13:00;23.80;99.90
2565;DHT22;1292;48.020;7.822;2023-07-22T20:15:28;23.70;99.90
2565;DHT22;1292;48.020;7.822;2023-07-22T20:17:55;23.70;99.90
2565;DHT22;1292;48.020;7.822;2023-07-22T20:20:22;23.70;99.90
2565;DHT22;1292;48.020;7.822;2023-07-22T20:22:49;23.60;99.90
2565;DHT22;1292;48.020;7.822;2023-07-22T20:25:16;23.50;99.90
2565;DHT22;1292;48.020;7.822;2023-07-22T20:27:43;23.50;99.90
2565;DHT22;1292;48.020;7.822;2023-07-22T20:30:11;23.50;99.90
2565;DHT22;1292;48.020;7.822;2023-07-22T20:32:39;23.40;99.90
2565;DHT22;1292;48.020;7.822;2023-07-22T20:35:06;23.30;99.90
2565;DHT22;1292;48.020;7.822;2023-07-22T20:37:37;22.90;99.90
2565;DHT22;1292;48.020;7.822;2023-07-22T20:40:05;22.50;99.90
2565;DHT22;1292;48.020;7.822;2023-07-22T20:42:33;22.40;99.90
2565;DHT22;1292;48.020;7.822;2023-07-22T20:45:00;22.20;99.90
2565;DHT22;1292;48.020;7.822;2023-07-22T20:47:27;22.00;99.90
2565;DHT22;1292;48.020;7.822;2023-07-22T20:49:55;22.00;99.90
2565;DHT22;1292;48.020;7.822;2023-07-22T20:52:22;22.00;99.90
2565;DHT22;1292;48.020;7.822;2023-07-22T20:54:50;21.80;99.90
2565;DHT22;1292;48.020;7.822;2023-07-22T20:57:17;21.70;99.90
2565;DHT22;1292;48.020;7.822;2023-07-22T20:59:45;21.70;99.90
2565;DHT22;1292;48.020;7.822;2023-07-22T21:02:12;21.60;99.90
2565;DHT22;1292;48.020;7.822;2023-07-22T21:04:41;21.50;99.90
2565;DHT22;1292;48.020;7.822;2023-07-22T21:07:10;21.70;99.90
2565;DHT22;1292;48.020;7.822;2023-07-22T21:09:37;21.90;99.90
2565;DHT22;1292;48.020;7.822;2023-07-22T21:12:05;21.90;99.90
2565;DHT22;1292;48.020;7.822;2023-07-22T21:14:32;22.00;99.90
2565;DHT22;1292;48.020;7.822;2023-07-22T21:16:59;22.10;99.90
2565;DHT22;1292;48.020;7.822;2023-07-22T21:19:26;22.10;99.90
2565;DHT22;1292;48.020;7.822;2023-07-22T21:21:53;22.10;99.90
2565;DHT22;1292;48.020;7.822;2023-07-22T21:24:21;22.10;99.90
2565;DHT22;1292;48.020;7.822;2023-07-22T21:26:48;22.10;99.90
2565;DHT22;1292;48.020;7.822;2023-07-22T21:29:15;22.20;99.90
2565;DHT22;1292;48.020;7.822;2023-07-22T21:31:42;22.20;99.90
2565;DHT22;1292;48.020;7.822;2023-07-22T21:34:09;22.10;99.90
2565;DHT22;1292;48.020;7.822;2023-07-22T21:36:35;22.10;99.90
2565;DHT22;1292;48.020;7.822;2023-07-22T21:39:03;22.10;99.90
